Orgas, West Virginia
Current Conditions -  °F | °C
As of 8:54 PM on Saturday 22 Nov 2014 (Local Time) from KCRW Reporting Station
Scattered Clouds Scattered Clouds  
Wind Chill: 52°   Ceiling: Unl
Heat Index: 52°   Visibility: 10mi
Dew Point: 24°   Wind: 8mph
Humidity: 34%   Direction: 160°SSE
Pressure: 30.16"   Gusts: NA
Location:  38.06°N, 81.57°W
Report Text: KCRW 230154Z 16007KT 10SM SCT100 11/M04 A3016 RMK AO2 SLP219 T01111044
Loading
Personal Weather Stations






























Interactive Weather Map New forecast layout! Learn more

10-Day Weather Forecast

Advertisements
Track Severe Weather on mobile